Goshen, New York
Current Conditions -  °F | °C
As of 10:54 AM on Thursday 18 Dec 2014 (Local Time) from KMGJ Reporting Station
Overcast Overcast  
Wind Chill: 29°   Ceiling: 3600
Heat Index: 38°   Visibility: 10mi
Dew Point: 24°   Wind: 16mph
Humidity: 57%   Direction: 300°WNW
Pressure: 29.94"   Gusts: 25mph
Location:  41.41°N, 74.32°W
Report Text: KMGJ 181554Z AUTO 30014G22KT 10SM OVC036 03/M04 A2994 RMK AO2 SLP142 T00331044 TSNO
Loading
Personal Weather Stations






























Interactive Weather Map New forecast layout! Learn more

10-Day Weather Forecast

Advertisements
Track Severe Weather on mobile